sensor_id;sensor_type;location;lat;lon;timestamp;pressure;altitude;pressure_sealevel;temperature;humidity
34177;BME280;20450;49.074;9.158;2022-08-02T00:01:43;99654.72;;;22.31;71.26
34177;BME280;20450;49.074;9.158;2022-08-02T00:04:23;99661.69;;;22.32;73.19
34177;BME280;20450;49.074;9.158;2022-08-02T00:06:56;99654.09;;;22.29;72.98
34177;BME280;20450;49.074;9.158;2022-08-02T00:09:27;99656.13;;;22.27;73.55
34177;BME280;20450;49.074;9.158;2022-08-02T00:11:55;99650.78;;;21.77;76.57
34177;BME280;20450;49.074;9.158;2022-08-02T00:14:32;99645.94;;;21.58;78.29
34177;BME280;20450;49.074;9.158;2022-08-02T00:17:15;99645.75;;;21.45;80.16
34177;BME280;20450;49.074;9.158;2022-08-02T00:19:51;99650.34;;;21.51;80.44
34177;BME280;20450;49.074;9.158;2022-08-02T00:22:22;99644.88;;;21.67;79.81
34177;BME280;20450;49.074;9.158;2022-08-02T00:24:56;99640.78;;;21.79;78.76
34177;BME280;20450;49.074;9.158;2022-08-02T00:27:29;99645.63;;;21.90;78.04
34177;BME280;20450;49.074;9.158;2022-08-02T00:29:59;99647.66;;;21.73;79.41
34177;BME280;20450;49.074;9.158;2022-08-02T00:32:30;99651.31;;;21.87;79.70
34177;BME280;20450;49.074;9.158;2022-08-02T00:35:10;99650.75;;;21.91;79.50
34177;BME280;20450;49.074;9.158;2022-08-02T00:37:43;99647.09;;;21.78;81.08
34177;BME280;20450;49.074;9.158;2022-08-02T00:40:20;99648.84;;;21.85;80.40
34177;BME280;20450;49.074;9.158;2022-08-02T00:43:03;99651.56;;;21.92;79.84
34177;BME280;20450;49.074;9.158;2022-08-02T00:45:41;99653.59;;;21.75;80.16
34177;BME280;20450;49.074;9.158;2022-08-02T00:48:30;99651.94;;;21.74;80.09
34177;BME280;20450;49.074;9.158;2022-08-02T00:51:01;99654.50;;;21.68;80.90
34177;BME280;20450;49.074;9.158;2022-08-02T00:53:37;99654.78;;;21.73;80.23
34177;BME280;20450;49.074;9.158;2022-08-02T00:56:11;99662.75;;;21.73;79.88
34177;BME280;20450;49.074;9.158;2022-08-02T00:58:40;99654.25;;;21.26;82.62
34177;BME280;20450;49.074;9.158;2022-08-02T01:01:17;99652.13;;;21.21;82.61
34177;BME280;20450;49.074;9.158;2022-08-02T01:03:54;99661.41;;;21.03;84.11
34177;BME280;20450;49.074;9.158;2022-08-02T01:06:28;99667.91;;;21.15;83.60
34177;BME280;20450;49.074;9.158;2022-08-02T01:09:03;99656.16;;;21.32;81.98
34177;BME280;20450;49.074;9.158;2022-08-02T01:11:46;99666.06;;;21.38;81.84
34177;BME280;20450;49.074;9.158;2022-08-02T01:14:31;99664.66;;;21.27;83.16
34177;BME280;20450;49.074;9.158;2022-08-02T01:17:06;99660.56;;;21.02;84.81
34177;BME280;20450;49.074;9.158;2022-08-02T01:20:04;99665.66;;;20.81;86.56
34177;BME280;20450;49.074;9.158;2022-08-02T01:23:08;99677.59;;;21.08;85.61
34177;BME280;20450;49.074;9.158;2022-08-02T01:26:25;99667.13;;;21.29;84.27
34177;BME280;20450;49.074;9.158;2022-08-02T01:29:12;99673.38;;;21.36;85.24
34177;BME280;20450;49.074;9.158;2022-08-02T01:31:54;99674.78;;;21.24;87.43
34177;BME280;20450;49.074;9.158;2022-08-02T01:34:40;99674.91;;;21.30;85.96
34177;BME280;20450;49.074;9.158;2022-08-02T01:37:19;99677.72;;;21.29;85.83
34177;BME280;20450;49.074;9.158;2022-08-02T01:40:02;99679.84;;;21.33;85.31
34177;BME280;20450;49.074;9.158;2022-08-02T01:42:48;99673.00;;;21.39;84.50
34177;BME280;20450;49.074;9.158;2022-08-02T01:45:32;99688.91;;;21.39;84.32
34177;BME280;20450;49.074;9.158;2022-08-02T01:48:07;99686.75;;;21.20;83.89
34177;BME280;20450;49.074;9.158;2022-08-02T01:50:48;99687.19;;;20.78;87.08
34177;BME280;20450;49.074;9.158;2022-08-02T01:53:21;99687.03;;;20.80;86.64
34177;BME280;20450;49.074;9.158;2022-08-02T01:55:55;99693.94;;;20.89;86.77
34177;BME280;20450;49.074;9.158;2022-08-02T01:58:32;99697.56;;;20.96;85.04
34177;BME280;20450;49.074;9.158;2022-08-02T02:01:11;99693.75;;;20.68;87.19
34177;BME280;20450;49.074;9.158;2022-08-02T02:03:46;99687.94;;;20.64;88.75
34177;BME280;20450;49.074;9.158;2022-08-02T02:06:23;99699.13;;;20.52;89.22
34177;BME280;20450;49.074;9.158;2022-08-02T02:08:58;99699.38;;;20.65;88.22
34177;BME280;20450;49.074;9.158;2022-08-02T02:11:30;99703.97;;;20.71;87.45
34177;BME280;20450;49.074;9.158;2022-08-02T02:14:21;99701.69;;;20.68;86.85
34177;BME280;20450;49.074;9.158;2022-08-02T02:16:58;99705.03;;;20.84;86.40
34177;BME280;20450;49.074;9.158;2022-08-02T02:19:41;99703.50;;;20.98;85.67
34177;BME280;20450;49.074;9.158;2022-08-02T02:22:21;99693.91;;;20.97;84.19
34177;BME280;20450;49.074;9.158;2022-08-02T02:24:53;99698.13;;;21.06;82.15
34177;BME280;20450;49.074;9.158;2022-08-02T02:27:25;99692.81;;;21.06;80.77
34177;BME280;20450;49.074;9.158;2022-08-02T02:29:54;99693.78;;;21.13;80.42
34177;BME280;20450;49.074;9.158;2022-08-02T02:32:29;99694.75;;;21.12;79.93
34177;BME280;20450;49.074;9.158;2022-08-02T02:35:06;99686.97;;;20.96;79.92
34177;BME280;20450;49.074;9.158;2022-08-02T02:37:42;99688.69;;;20.81;79.42
34177;BME280;20450;49.074;9.158;2022-08-02T02:40:14;99684.31;;;20.88;80.68
34177;BME280;20450;49.074;9.158;2022-08-02T02:42:48;99677.88;;;20.90;79.02
34177;BME280;20450;49.074;9.158;2022-08-02T02:45:21;99670.78;;;20.83;79.24
34177;BME280;20450;49.074;9.158;2022-08-02T02:48:00;99667.19;;;20.76;80.07
34177;BME280;20450;49.074;9.158;2022-08-02T02:50:34;99662.44;;;20.71;80.53
34177;BME280;20450;49.074;9.158;2022-08-02T02:53:04;99655.44;;;20.48;81.38
34177;BME280;20450;49.074;9.158;2022-08-02T02:55:37;99655.44;;;20.48;80.86
34177;BME280;20450;49.074;9.158;2022-08-02T02:58:30;99656.69;;;20.60;80.45
34177;BME280;20450;49.074;9.158;2022-08-02T03:01:00;99655.50;;;20.70;79.90
34177;BME280;20450;49.074;9.158;2022-08-02T03:03:31;99655.25;;;20.80;79.77
34177;BME280;20450;49.074;9.158;2022-08-02T03:06:15;99661.97;;;20.90;80.19
34177;BME280;20450;49.074;9.158;2022-08-02T03:08:49;99669.38;;;20.95;79.57
34177;BME280;20450;49.074;9.158;2022-08-02T03:11:20;99667.03;;;21.00;80.27
34177;BME280;20450;49.074;9.158;2022-08-02T03:14:08;99663.22;;;21.02;80.74
34177;BME280;20450;49.074;9.158;2022-08-02T03:16:51;99662.03;;;21.05;80.93
34177;BME280;20450;49.074;9.158;2022-08-02T03:19:29;99666.31;;;21.06;81.37
34177;BME280;20450;49.074;9.158;2022-08-02T03:22:03;99671.28;;;21.09;81.85
34177;BME280;20450;49.074;9.158;2022-08-02T03:24:35;99670.91;;;21.12;81.35
34177;BME280;20450;49.074;9.158;2022-08-02T03:27:06;99671.91;;;21.11;80.97
34177;BME280;20450;49.074;9.158;2022-08-02T03:29:43;99679.53;;;21.14;81.94
34177;BME280;20450;49.074;9.158;2022-08-02T03:32:11;99669.72;;;21.14;82.70
34177;BME280;20450;49.074;9.158;2022-08-02T03:34:47;99679.41;;;21.07;83.24
34177;BME280;20450;49.074;9.158;2022-08-02T03:37:19;99676.81;;;20.99;82.84
34177;BME280;20450;49.074;9.158;2022-08-02T03:39:50;99682.47;;;20.96;82.23
34177;BME280;20450;49.074;9.158;2022-08-02T03:42:29;99684.94;;;20.98;82.46
34177;BME280;20450;49.074;9.158;2022-08-02T03:45:05;99688.13;;;20.93;81.25
34177;BME280;20450;49.074;9.158;2022-08-02T03:47:42;99692.19;;;20.73;83.56
34177;BME280;20450;49.074;9.158;2022-08-02T03:50:18;99693.38;;;20.71;85.32
34177;BME280;20450;49.074;9.158;2022-08-02T03:52:51;99697.16;;;20.76;84.50
34177;BME280;20450;49.074;9.158;2022-08-02T03:55:26;99702.09;;;20.79;85.46
34177;BME280;20450;49.074;9.158;2022-08-02T03:57:59;99697.03;;;20.70;87.56
34177;BME280;20450;49.074;9.158;2022-08-02T04:00:28;99709.97;;;20.65;87.55
34177;BME280;20450;49.074;9.158;2022-08-02T04:02:58;99713.44;;;20.65;87.64
34177;BME280;20450;49.074;9.158;2022-08-02T04:05:33;99714.94;;;20.60;88.91
34177;BME280;20450;49.074;9.158;2022-08-02T04:08:27;99714.69;;;20.47;88.65
34177;BME280;20450;49.074;9.158;2022-08-02T04:11:05;99720.00;;;20.47;85.80
34177;BME280;20450;49.074;9.158;2022-08-02T04:13:39;99727.56;;;20.50;83.83
34177;BME280;20450;49.074;9.158;2022-08-02T04:16:15;99730.19;;;20.58;82.91
34177;BME280;20450;49.074;9.158;2022-08-02T04:18:53;99736.09;;;20.68;83.44
34177;BME280;20450;49.074;9.158;2022-08-02T04:21:30;99730.66;;;20.61;85.16
34177;BME280;20450;49.074;9.158;2022-08-02T04:24:24;99730.53;;;20.55;86.34
34177;BME280;20450;49.074;9.158;2022-08-02T04:27:00;99737.88;;;20.45;87.40
34177;BME280;20450;49.074;9.158;2022-08-02T04:29:56;99741.88;;;20.41;88.04
34177;BME280;20450;49.074;9.158;2022-08-02T04:32:36;99739.72;;;20.67;86.92
34177;BME280;20450;49.074;9.158;2022-08-02T04:35:10;99741.59;;;20.97;85.70
34177;BME280;20450;49.074;9.158;2022-08-02T04:37:50;99736.75;;;21.23;83.75
34177;BME280;20450;49.074;9.158;2022-08-02T04:40:51;99728.34;;;21.19;83.85
34177;BME280;20450;49.074;9.158;2022-08-02T04:43:22;99731.44;;;21.23;83.36
34177;BME280;20450;49.074;9.158;2022-08-02T04:46:06;99729.91;;;21.51;82.50
34177;BME280;20450;49.074;9.158;2022-08-02T04:48:38;99722.41;;;21.77;81.45
34177;BME280;20450;49.074;9.158;2022-08-02T04:51:11;99736.69;;;22.05;79.98
34177;BME280;20450;49.074;9.158;2022-08-02T04:54:03;99733.47;;;22.24;80.63
34177;BME280;20450;49.074;9.158;2022-08-02T04:56:37;99742.16;;;22.61;78.75
34177;BME280;20450;49.074;9.158;2022-08-02T04:59:08;99746.53;;;23.19;75.93
34177;BME280;20450;49.074;9.158;2022-08-02T05:01:48;99746.06;;;22.80;72.89
34177;BME280;20450;49.074;9.158;2022-08-02T05:04:16;99745.50;;;23.20;71.71
34177;BME280;20450;49.074;9.158;2022-08-02T05:06:49;99746.25;;;23.83;68.99
34177;BME280;20450;49.074;9.158;2022-08-02T05:09:28;99745.78;;;24.35;65.72
34177;BME280;20450;49.074;9.158;2022-08-02T05:12:02;99743.97;;;24.01;66.27
34177;BME280;20450;49.074;9.158;2022-08-02T05:14:34;99735.06;;;23.67;67.95
34177;BME280;20450;49.074;9.158;2022-08-02T05:17:10;99745.22;;;23.57;67.83
34177;BME280;20450;49.074;9.158;2022-08-02T05:19:39;99750.06;;;23.26;68.36
34177;BME280;20450;49.074;9.158;2022-08-02T05:22:16;99736.50;;;22.35;71.38
34177;BME280;20450;49.074;9.158;2022-08-02T05:24:51;99743.34;;;22.59;70.59
34177;BME280;20450;49.074;9.158;2022-08-02T05:27:24;99747.56;;;22.39;71.86
34177;BME280;20450;49.074;9.158;2022-08-02T05:29:52;99742.91;;;22.12;72.98
34177;BME280;20450;49.074;9.158;2022-08-02T05:32:51;99744.53;;;22.42;71.55
34177;BME280;20450;49.074;9.158;2022-08-02T05:35:21;99735.38;;;21.86;72.97
34177;BME280;20450;49.074;9.158;2022-08-02T05:37:57;99751.78;;;22.98;70.41
34177;BME280;20450;49.074;9.158;2022-08-02T05:40:36;99753.75;;;24.35;64.88
34177;BME280;20450;49.074;9.158;2022-08-02T05:43:26;99756.25;;;24.83;62.20
34177;BME280;20450;49.074;9.158;2022-08-02T05:45:54;99750.38;;;25.07;61.72
34177;BME280;20450;49.074;9.158;2022-08-02T05:48:30;99745.94;;;25.60;59.83
34177;BME280;20450;49.074;9.158;2022-08-02T05:51:12;99765.53;;;26.63;56.84
34177;BME280;20450;49.074;9.158;2022-08-02T05:54:03;99757.72;;;27.67;53.47
34177;BME280;20450;49.074;9.158;2022-08-02T05:56:50;99755.72;;;28.66;51.40
34177;BME280;20450;49.074;9.158;2022-08-02T05:59:32;99764.88;;;29.88;48.65
34177;BME280;20450;49.074;9.158;2022-08-02T06:02:16;99767.53;;;30.68;46.27
34177;BME280;20450;49.074;9.158;2022-08-02T06:05:03;99775.44;;;31.59;44.23
34177;BME280;20450;49.074;9.158;2022-08-02T06:07:42;99774.22;;;32.16;42.28
34177;BME280;20450;49.074;9.158;2022-08-02T06:10:19;99782.09;;;32.34;42.17
34177;BME280;20450;49.074;9.158;2022-08-02T06:13:10;99790.06;;;33.10;40.23
34177;BME280;20450;49.074;9.158;2022-08-02T06:15:44;99796.41;;;33.47;39.38
34177;BME280;20450;49.074;9.158;2022-08-02T06:18:22;99782.78;;;33.95;38.28
34177;BME280;20450;49.074;9.158;2022-08-02T06:21:05;99780.88;;;33.64;38.90
34177;BME280;20450;49.074;9.158;2022-08-02T06:24:09;99777.63;;;33.62;38.81
34177;BME280;20450;49.074;9.158;2022-08-02T06:26:47;99784.50;;;33.43;39.62
34177;BME280;20450;49.074;9.158;2022-08-02T06:29:21;99761.94;;;33.59;39.06
34177;BME280;20450;49.074;9.158;2022-08-02T06:32:06;99765.13;;;32.38;41.45
34177;BME280;20450;49.074;9.158;2022-08-02T06:34:38;99761.88;;;32.20;41.54
34177;BME280;20450;49.074;9.158;2022-08-02T06:37:36;99775.94;;;32.38;41.46
34177;BME280;20450;49.074;9.158;2022-08-02T06:40:13;99772.00;;;33.15;40.29
34177;BME280;20450;49.074;9.158;2022-08-02T06:45:55;99770.06;;;33.95;38.10
34177;BME280;20450;49.074;9.158;2022-08-02T06:48:58;99772.22;;;33.62;39.26
34177;BME280;20450;49.074;9.158;2022-08-02T06:51:43;99774.84;;;33.83;38.48
34177;BME280;20450;49.074;9.158;2022-08-02T06:54:19;99780.00;;;34.73;37.41
34177;BME280;20450;49.074;9.158;2022-08-02T06:56:53;99777.84;;;34.75;37.05
34177;BME280;20450;49.074;9.158;2022-08-02T06:59:45;99777.63;;;34.30;38.15
34177;BME280;20450;49.074;9.158;2022-08-02T07:02:17;99776.72;;;34.71;36.99
34177;BME280;20450;49.074;9.158;2022-08-02T07:04:52;99770.34;;;33.94;38.80
34177;BME280;20450;49.074;9.158;2022-08-02T07:07:31;99765.94;;;32.39;41.19
34177;BME280;20450;49.074;9.158;2022-08-02T07:10:03;99770.13;;;31.03;44.41
34177;BME280;20450;49.074;9.158;2022-08-02T07:12:35;99770.19;;;31.36;43.07
34177;BME280;20450;49.074;9.158;2022-08-02T07:15:14;99765.91;;;32.55;41.19
34177;BME280;20450;49.074;9.158;2022-08-02T07:17:53;99776.94;;;34.13;38.19
34177;BME280;20450;49.074;9.158;2022-08-02T07:20:29;99777.78;;;34.65;37.98
34177;BME280;20450;49.074;9.158;2022-08-02T07:23:30;99784.75;;;35.12;36.47
34177;BME280;20450;49.074;9.158;2022-08-02T07:26:05;99790.81;;;35.64;36.01
34177;BME280;20450;49.074;9.158;2022-08-02T07:28:38;99784.03;;;35.42;35.96
34177;BME280;20450;49.074;9.158;2022-08-02T07:31:06;99788.34;;;36.13;35.28
34177;BME280;20450;49.074;9.158;2022-08-02T07:33:36;99788.25;;;36.58;34.09
34177;BME280;20450;49.074;9.158;2022-08-02T07:36:21;99783.44;;;36.45;33.98
34177;BME280;20450;49.074;9.158;2022-08-02T07:38:55;99785.63;;;37.06;32.68
34177;BME280;20450;49.074;9.158;2022-08-02T07:41:25;99789.19;;;35.63;35.28
34177;BME280;20450;49.074;9.158;2022-08-02T07:43:54;99782.06;;;35.22;36.57
34177;BME280;20450;49.074;9.158;2022-08-02T07:46:35;99787.25;;;36.14;34.98
34177;BME280;20450;49.074;9.158;2022-08-02T07:49:04;99786.66;;;36.67;33.59
34177;BME280;20450;49.074;9.158;2022-08-02T07:51:33;99796.00;;;36.94;33.50
34177;BME280;20450;49.074;9.158;2022-08-02T07:54:12;99799.66;;;35.15;35.86
34177;BME280;20450;49.074;9.158;2022-08-02T07:56:46;99793.00;;;35.62;35.80
34177;BME280;20450;49.074;9.158;2022-08-02T07:59:23;99790.59;;;35.76;34.96
34177;BME280;20450;49.074;9.158;2022-08-02T08:01:59;99786.22;;;35.70;35.19
34177;BME280;20450;49.074;9.158;2022-08-02T08:04:31;99786.19;;;35.30;35.85
34177;BME280;20450;49.074;9.158;2022-08-02T08:06:59;99777.75;;;34.08;37.74
34177;BME280;20450;49.074;9.158;2022-08-02T08:09:34;99773.38;;;33.39;38.92
34177;BME280;20450;49.074;9.158;2022-08-02T08:12:17;99783.47;;;33.49;39.25
34177;BME280;20450;49.074;9.158;2022-08-02T08:14:50;99781.59;;;33.54;38.71
34177;BME280;20450;49.074;9.158;2022-08-02T08:17:34;99787.41;;;33.68;38.58
34177;BME280;20450;49.074;9.158;2022-08-02T08:20:10;99775.16;;;33.60;38.82
34177;BME280;20450;49.074;9.158;2022-08-02T08:22:47;99778.25;;;33.74;38.69
34177;BME280;20450;49.074;9.158;2022-08-02T08:25:25;99773.34;;;33.66;39.14
34177;BME280;20450;49.074;9.158;2022-08-02T08:27:56;99773.63;;;33.38;39.31
34177;BME280;20450;49.074;9.158;2022-08-02T08:30:50;99768.31;;;32.35;41.26
34177;BME280;20450;49.074;9.158;2022-08-02T08:33:20;99773.06;;;31.18;43.56
34177;BME280;20450;49.074;9.158;2022-08-02T08:35:58;99778.47;;;31.18;44.07
34177;BME280;20450;49.074;9.158;2022-08-02T08:38:29;99758.78;;;30.50;45.33
34177;BME280;20450;49.074;9.158;2022-08-02T08:41:06;99775.34;;;31.09;43.67
34177;BME280;20450;49.074;9.158;2022-08-02T08:43:34;99771.03;;;31.36;43.51
34177;BME280;20450;49.074;9.158;2022-08-02T08:46:15;99764.47;;;31.77;42.85
34177;BME280;20450;49.074;9.158;2022-08-02T08:48:58;99762.59;;;31.94;42.27
34177;BME280;20450;49.074;9.158;2022-08-02T08:51:42;99760.94;;;31.60;43.65
34177;BME280;20450;49.074;9.158;2022-08-02T08:54:39;99753.00;;;32.03;41.46
34177;BME280;20450;49.074;9.158;2022-08-02T08:57:20;99749.53;;;32.24;40.86
34177;BME280;20450;49.074;9.158;2022-08-02T09:02:45;99763.31;;;32.44;40.87
34177;BME280;20450;49.074;9.158;2022-08-02T09:05:20;99755.50;;;31.27;42.19
34177;BME280;20450;49.074;9.158;2022-08-02T09:07:57;99753.03;;;30.97;42.54
34177;BME280;20450;49.074;9.158;2022-08-02T09:10:45;99748.50;;;29.55;45.25
34177;BME280;20450;49.074;9.158;2022-08-02T09:13:22;99746.94;;;28.88;48.25
34177;BME280;20450;49.074;9.158;2022-08-02T09:16:31;99747.16;;;29.46;47.56
34177;BME280;20450;49.074;9.158;2022-08-02T09:19:21;99747.38;;;29.97;45.56
34177;BME280;20450;49.074;9.158;2022-08-02T09:22:17;99757.69;;;30.62;44.35
34177;BME280;20450;49.074;9.158;2022-08-02T09:24:53;99754.34;;;30.95;43.32
34177;BME280;20450;49.074;9.158;2022-08-02T09:27:37;99748.56;;;30.63;44.88
34177;BME280;20450;49.074;9.158;2022-08-02T09:30:20;99745.72;;;30.30;45.35
34177;BME280;20450;49.074;9.158;2022-08-02T09:32:52;99740.81;;;28.70;47.50
34177;BME280;20450;49.074;9.158;2022-08-02T09:35:38;99733.09;;;29.62;45.87
34177;BME280;20450;49.074;9.158;2022-08-02T09:38:30;99741.41;;;29.72;46.17
34177;BME280;20450;49.074;9.158;2022-08-02T09:41:33;99734.97;;;29.96;46.30
34177;BME280;20450;49.074;9.158;2022-08-02T09:44:14;99747.13;;;30.84;44.32
34177;BME280;20450;49.074;9.158;2022-08-02T09:47:15;99756.19;;;31.67;42.74
34177;BME280;20450;49.074;9.158;2022-08-02T09:50:02;99749.13;;;32.32;41.22
34177;BME280;20450;49.074;9.158;2022-08-02T09:52:43;99747.13;;;32.87;40.00
34177;BME280;20450;49.074;9.158;2022-08-02T09:55:11;99747.38;;;32.64;38.95
34177;BME280;20450;49.074;9.158;2022-08-02T09:57:44;99746.19;;;32.98;39.39
34177;BME280;20450;49.074;9.158;2022-08-02T10:00:18;99738.25;;;33.44;38.54
34177;BME280;20450;49.074;9.158;2022-08-02T10:03:20;99739.91;;;33.77;37.27
34177;BME280;20450;49.074;9.158;2022-08-02T10:06:11;99733.53;;;33.88;36.73
34177;BME280;20450;49.074;9.158;2022-08-02T10:08:46;99728.22;;;34.08;37.18
34177;BME280;20450;49.074;9.158;2022-08-02T10:11:21;99731.28;;;34.21;36.44
34177;BME280;20450;49.074;9.158;2022-08-02T10:13:58;99725.50;;;34.49;35.38
34177;BME280;20450;49.074;9.158;2022-08-02T10:16:28;99725.28;;;34.71;35.47
34177;BME280;20450;49.074;9.158;2022-08-02T10:18:56;99726.44;;;33.82;36.72
34177;BME280;20450;49.074;9.158;2022-08-02T10:21:29;99715.28;;;32.89;38.00
34177;BME280;20450;49.074;9.158;2022-08-02T10:24:29;99714.19;;;33.11;37.29
34177;BME280;20450;49.074;9.158;2022-08-02T10:27:06;99716.75;;;31.00;41.34
34177;BME280;20450;49.074;9.158;2022-08-02T10:29:49;99704.81;;;31.57;40.34
34177;BME280;20450;49.074;9.158;2022-08-02T10:32:32;99709.91;;;32.67;38.75
34177;BME280;20450;49.074;9.158;2022-08-02T10:35:14;99711.03;;;33.51;37.45
34177;BME280;20450;49.074;9.158;2022-08-02T10:38:12;99696.97;;;32.69;37.72
34177;BME280;20450;49.074;9.158;2022-08-02T10:44:40;99697.66;;;34.69;35.43
34177;BME280;20450;49.074;9.158;2022-08-02T10:47:23;99706.88;;;34.11;36.28
34177;BME280;20450;49.074;9.158;2022-08-02T10:50:01;99697.28;;;34.30;35.59
34177;BME280;20450;49.074;9.158;2022-08-02T10:52:41;99696.13;;;34.98;33.92
34177;BME280;20450;49.074;9.158;2022-08-02T10:55:30;99699.44;;;35.50;33.69
34177;BME280;20450;49.074;9.158;2022-08-02T10:58:21;99693.88;;;36.30;32.50
34177;BME280;20450;49.074;9.158;2022-08-02T11:01:02;99702.72;;;37.14;31.30
34177;BME280;20450;49.074;9.158;2022-08-02T11:03:40;99704.63;;;37.47;30.27
34177;BME280;20450;49.074;9.158;2022-08-02T11:06:19;99693.75;;;37.75;29.29
34177;BME280;20450;49.074;9.158;2022-08-02T11:09:26;99692.06;;;38.31;28.26
34177;BME280;20450;49.074;9.158;2022-08-02T11:12:04;99684.38;;;38.15;27.82
34177;BME280;20450;49.074;9.158;2022-08-02T11:14:38;99688.38;;;38.46;28.51
34177;BME280;20450;49.074;9.158;2022-08-02T11:17:11;99687.56;;;38.64;28.46
34177;BME280;20450;49.074;9.158;2022-08-02T11:20:21;99678.88;;;38.85;27.68
34177;BME280;20450;49.074;9.158;2022-08-02T11:26:47;99671.44;;;35.99;30.90
34177;BME280;20450;49.074;9.158;2022-08-02T11:29:22;99661.47;;;35.05;32.57
34177;BME280;20450;49.074;9.158;2022-08-02T11:32:07;99664.72;;;35.87;31.51
34177;BME280;20450;49.074;9.158;2022-08-02T11:34:45;99659.88;;;36.96;30.31
34177;BME280;20450;49.074;9.158;2022-08-02T11:37:31;99655.06;;;37.83;28.86
34177;BME280;20450;49.074;9.158;2022-08-02T11:40:12;99652.84;;;38.32;28.19
34177;BME280;20450;49.074;9.158;2022-08-02T11:42:49;99654.56;;;38.05;27.30
34177;BME280;20450;49.074;9.158;2022-08-02T11:45:31;99657.66;;;38.40;28.04
34177;BME280;20450;49.074;9.158;2022-08-02T11:48:09;99658.06;;;38.89;27.42
34177;BME280;20450;49.074;9.158;2022-08-02T11:50:42;99662.16;;;39.42;26.43
34177;BME280;20450;49.074;9.158;2022-08-02T11:53:15;99652.72;;;39.35;27.27
34177;BME280;20450;49.074;9.158;2022-08-02T11:55:46;99658.81;;;39.45;26.20
34177;BME280;20450;49.074;9.158;2022-08-02T11:58:25;99650.63;;;36.97;28.96
34177;BME280;20450;49.074;9.158;2022-08-02T12:01:02;99653.88;;;37.66;28.82
34177;BME280;20450;49.074;9.158;2022-08-02T12:03:41;99646.25;;;37.34;28.49
34177;BME280;20450;49.074;9.158;2022-08-02T12:06:17;99637.72;;;37.17;28.98
34177;BME280;20450;49.074;9.158;2022-08-02T12:08:51;99643.03;;;35.12;30.82
34177;BME280;20450;49.074;9.158;2022-08-02T12:11:37;99642.97;;;34.62;32.65
34177;BME280;20450;49.074;9.158;2022-08-02T12:14:24;99634.56;;;34.53;32.35
34177;BME280;20450;49.074;9.158;2022-08-02T12:17:02;99630.97;;;34.28;33.45
34177;BME280;20450;49.074;9.158;2022-08-02T12:19:39;99642.22;;;34.15;33.07
34177;BME280;20450;49.074;9.158;2022-08-02T12:22:14;99637.66;;;34.20;32.91
34177;BME280;20450;49.074;9.158;2022-08-02T12:24:50;99636.56;;;34.16;33.01
34177;BME280;20450;49.074;9.158;2022-08-02T12:27:36;99641.72;;;34.18;32.96
34177;BME280;20450;49.074;9.158;2022-08-02T12:30:10;99626.97;;;33.16;33.69
34177;BME280;20450;49.074;9.158;2022-08-02T12:32:45;99626.03;;;31.83;36.99
34177;BME280;20450;49.074;9.158;2022-08-02T12:35:20;99627.13;;;31.49;36.53
34177;BME280;20450;49.074;9.158;2022-08-02T12:38:10;99624.72;;;32.07;36.42
34177;BME280;20450;49.074;9.158;2022-08-02T12:40:44;99630.59;;;32.47;35.52
34177;BME280;20450;49.074;9.158;2022-08-02T12:43:18;99625.34;;;32.62;34.55
34177;BME280;20450;49.074;9.158;2022-08-02T12:45:55;99618.28;;;32.56;34.02
34177;BME280;20450;49.074;9.158;2022-08-02T12:48:36;99615.97;;;31.78;36.45
34177;BME280;20450;49.074;9.158;2022-08-02T12:51:31;99616.84;;;31.67;36.71
34177;BME280;20450;49.074;9.158;2022-08-02T12:54:29;99605.97;;;31.08;36.84
34177;BME280;20450;49.074;9.158;2022-08-02T12:57:15;99614.97;;;31.46;36.19
34177;BME280;20450;49.074;9.158;2022-08-02T12:59:52;99603.63;;;31.82;36.00
34177;BME280;20450;49.074;9.158;2022-08-02T13:02:24;99601.72;;;31.12;36.37
34177;BME280;20450;49.074;9.158;2022-08-02T13:05:03;99598.44;;;30.77;37.05
34177;BME280;20450;49.074;9.158;2022-08-02T13:07:50;99598.16;;;31.23;36.80
34177;BME280;20450;49.074;9.158;2022-08-02T13:10:22;99599.31;;;31.27;36.13
34177;BME280;20450;49.074;9.158;2022-08-02T13:12:59;99593.25;;;30.87;37.46
34177;BME280;20450;49.074;9.158;2022-08-02T13:15:33;99587.59;;;30.44;38.47
34177;BME280;20450;49.074;9.158;2022-08-02T13:18:20;99593.94;;;30.66;38.09
34177;BME280;20450;49.074;9.158;2022-08-02T13:20:48;99581.59;;;30.98;38.27
34177;BME280;20450;49.074;9.158;2022-08-02T13:23:25;99594.25;;;31.30;36.83
34177;BME280;20450;49.074;9.158;2022-08-02T13:26:17;99587.66;;;31.59;36.47
34177;BME280;20450;49.074;9.158;2022-08-02T13:28:47;99598.41;;;31.76;37.12
34177;BME280;20450;49.074;9.158;2022-08-02T13:31:28;99589.78;;;31.95;35.97
34177;BME280;20450;49.074;9.158;2022-08-02T13:34:07;99589.66;;;32.07;35.91
34177;BME280;20450;49.074;9.158;2022-08-02T13:36:56;99585.88;;;32.08;36.09
34177;BME280;20450;49.074;9.158;2022-08-02T13:39:37;99582.94;;;32.09;35.51
34177;BME280;20450;49.074;9.158;2022-08-02T13:42:39;99575.50;;;31.95;36.57
34177;BME280;20450;49.074;9.158;2022-08-02T13:45:17;99576.19;;;31.85;35.21
34177;BME280;20450;49.074;9.158;2022-08-02T13:47:51;99566.81;;;31.93;34.89
34177;BME280;20450;49.074;9.158;2022-08-02T13:50:52;99561.25;;;31.40;35.91
34177;BME280;20450;49.074;9.158;2022-08-02T13:53:23;99558.72;;;30.84;37.10
34177;BME280;20450;49.074;9.158;2022-08-02T13:55:51;99556.53;;;30.97;37.48
34177;BME280;20450;49.074;9.158;2022-08-02T13:58:37;99559.31;;;31.19;37.84
34177;BME280;20450;49.074;9.158;2022-08-02T14:01:08;99563.94;;;31.40;37.09
34177;BME280;20450;49.074;9.158;2022-08-02T14:03:38;99555.72;;;31.13;35.69
34177;BME280;20450;49.074;9.158;2022-08-02T14:06:56;99542.31;;;31.35;36.45
34177;BME280;20450;49.074;9.158;2022-08-02T14:09:29;99552.81;;;31.53;35.94
34177;BME280;20450;49.074;9.158;2022-08-02T14:12:02;99550.25;;;31.63;35.58
34177;BME280;20450;49.074;9.158;2022-08-02T14:14:40;99550.84;;;31.27;36.88
34177;BME280;20450;49.074;9.158;2022-08-02T14:17:19;99536.63;;;31.15;36.72